Time;durP1;ratioP1;P1;durP2;ratioP2;P2;SDS_P1;SDS_P2;PMS_P1;PMS_P2;Temp;Humidity;BMP_temperature;BMP_pressure;BME280_temperature;BME280_humidity;BME280_pressure;Samples;Min_cycle;Max_cycle;Signal;HPM_P1;HPM_P2
2022/08/29 21:30:51;;;;;;;21.40;16.33;;;;;;;23.61;59.98;94612.25;5053474;27;96585;-62
2022/08/29 21:33:17;;;;;;;20.98;17.50;;;;;;;23.55;59.39;94609.22;5051407;27;97017;-65
2022/08/29 21:35:43;;;;;;;22.95;16.10;;;;;;;23.67;56.89;94611.38;5050926;27;100053;-62
2022/08/29 21:38:08;;;;;;;23.33;18.55;;;;;;;23.77;56.88;94615.13;5051020;27;99153;-62
2022/08/29 21:40:34;;;;;;;26.15;20.58;;;;;;;23.87;58.32;94613.38;5051839;27;96729;-61
2022/08/29 21:42:59;;;;;;;34.13;28.95;;;;;;;23.96;58.31;94605.31;5051900;27;97877;-63
2022/08/29 21:45:25;;;;;;;35.20;31.35;;;;;;;23.95;57.80;94589.97;5051255;27;99473;-64
2022/08/29 21:47:51;;;;;;;29.17;24.23;;;;;;;24.09;57.60;94608.28;5051340;27;99604;-63
2022/08/29 21:50:17;;;;;;;24.67;21.20;;;;;;;24.19;56.00;94609.28;5051614;27;96937;-63
2022/08/29 21:52:43;;;;;;;24.30;18.02;;;;;;;24.18;55.90;94604.94;5052181;27;97002;-62
2022/08/29 21:55:08;;;;;;;21.60;17.15;;;;;;;24.14;55.17;94590.44;5051570;27;98573;-63
2022/08/29 21:57:54;;;;;;;16.90;14.80;;;;;;;24.20;54.25;94594.28;5050921;27;106379;-63
2022/08/29 22:00:31;;;;;;;22.20;18.40;;;;;;;24.21;53.32;94604.09;5051936;27;97075;-62
2022/08/29 22:02:58;;;;;;;24.70;21.95;;;;;;;24.20;53.30;94608.06;5052012;27;96734;-63
2022/08/29 22:05:23;;;;;;;34.40;30.52;;;;;;;24.18;53.04;94598.63;5050919;27;100266;-62
2022/08/29 22:07:49;;;;;;;39.75;35.20;;;;;;;24.16;53.17;94590.81;5051169;27;99684;-61
2022/08/29 22:10:20;;;;;;;34.28;27.42;;;;;;;24.14;53.16;94593.19;5051603;27;96656;-60
2022/08/29 22:12:46;;;;;;;27.98;23.48;;;;;;;24.12;52.96;94585.38;5051504;27;96824;-59
2022/08/29 22:17:55;;;;;;;24.95;20.90;;;;;;;24.20;52.77;94593.47;5047838;27;96888;-60
2022/08/29 22:20:20;;;;;;;29.13;23.05;;;;;;;24.26;52.61;94594.53;5050705;27;97079;-61
2022/08/29 22:22:46;;;;;;;24.90;21.05;;;;;;;24.27;52.77;94594.13;5051428;27;97537;-60
2022/08/29 22:25:11;;;;;;;25.13;22.15;;;;;;;24.36;52.91;94609.34;5050239;27;99870;-61
2022/08/29 22:27:37;;;;;;;24.38;21.17;;;;;;;24.35;53.28;94596.75;5050804;27;99611;-62
2022/08/29 22:30:04;;;;;;;23.23;19.65;;;;;;;24.35;52.95;94607.78;5050285;27;96901;-60
2022/08/29 22:32:29;;;;;;;24.77;18.60;;;;;;;24.37;52.98;94610.91;5050825;27;96948;-61
2022/08/29 22:34:55;;;;;;;23.88;19.15;;;;;;;24.41;53.29;94606.09;5050355;27;99442;-58
2022/08/29 22:37:21;;;;;;;22.40;19.65;;;;;;;24.41;53.46;94608.84;5050186;27;99408;-59
2022/08/29 22:39:46;;;;;;;22.65;20.30;;;;;;;24.41;53.65;94617.13;5050137;27;98111;-60
2022/08/29 22:42:11;;;;;;;30.55;15.77;;;;;;;24.39;53.73;94616.78;5036653;27;97070;-60
2022/08/29 22:44:37;;;;;;;22.58;18.25;;;;;;;24.40;53.88;94621.88;5036292;28;101835;-59
2022/08/29 22:47:04;;;;;;;24.25;19.25;;;;;;;24.37;53.57;94616.44;5036582;28;99205;-59
2022/08/29 22:49:29;;;;;;;21.15;18.60;;;;;;;24.37;53.83;94616.44;5036859;28;97055;-59
2022/08/29 22:51:55;;;;;;;22.08;19.02;;;;;;;24.40;54.70;94615.56;5035883;28;96968;-62
2022/08/29 22:54:35;;;;;;;20.55;17.42;;;;;;;24.43;54.24;94614.72;5034759;28;99738;-62
2022/08/29 22:57:09;;;;;;;23.38;20.15;;;;;;;24.39;53.75;94602.97;5036506;28;99351;-60
2022/08/29 22:59:35;;;;;;;21.02;18.83;;;;;;;24.45;53.41;94612.28;5036826;28;97408;-60
2022/08/29 23:02:00;;;;;;;20.08;17.90;;;;;;;24.49;53.62;94617.75;5036600;28;97004;-60
2022/08/29 23:04:26;;;;;;;20.15;17.85;;;;;;;24.50;53.42;94614.56;5035959;28;99783;-61
2022/08/29 23:06:52;;;;;;;20.17;16.70;;;;;;;24.47;53.85;94607.13;5036624;27;99287;-60
2022/08/29 23:09:17;;;;;;;20.73;18.50;;;;;;;24.53;53.65;94618.47;5036302;28;97131;-62
2022/08/29 23:11:43;;;;;;;23.92;21.02;;;;;;;24.54;53.77;94614.50;5037038;28;97212;-61
2022/08/29 23:14:08;;;;;;;31.70;28.25;;;;;;;24.53;53.81;94616.47;5036651;27;99359;-61
2022/08/29 23:16:34;;;;;;;29.60;26.40;;;;;;;24.57;53.58;94619.16;5036050;28;99252;-61
2022/08/29 23:19:00;;;;;;;37.08;33.10;;;;;;;24.57;53.67;94617.16;5036471;28;96717;-61
2022/08/29 23:21:25;;;;;;;33.15;29.90;;;;;;;24.56;53.86;94615.63;5037129;28;96904;-61
2022/08/29 23:23:51;;;;;;;26.35;22.90;;;;;;;24.56;54.00;94618.38;5036442;28;99707;-61
2022/08/29 23:26:17;;;;;;;23.48;20.98;;;;;;;24.55;54.27;94625.09;5036390;28;99483;-62
2022/08/29 23:28:42;;;;;;;21.45;19.25;;;;;;;24.55;53.62;94622.34;5036418;27;96930;-62
2022/08/29 23:31:08;;;;;;;20.90;17.85;;;;;;;24.52;54.15;94616.91;5037715;28;96851;-61
2022/08/29 23:33:33;;;;;;;22.02;19.70;;;;;;;24.56;53.69;94629.41;5034235;28;104941;-60
2022/08/29 23:35:58;;;;;;;28.10;23.92;;;;;;;24.54;53.81;94626.31;5036392;28;99776;-61
2022/08/29 23:38:24;;;;;;;34.38;30.88;;;;;;;24.58;53.69;94632.53;5036985;28;96715;-61
2022/08/29 23:40:50;;;;;;;29.80;26.48;;;;;;;24.62;54.15;94623.41;5036724;27;97042;-60
2022/08/29 23:43:19;;;;;;;25.38;22.08;;;;;;;24.62;54.36;94626.94;5036351;28;99436;-61
2022/08/29 23:45:45;;;;;;;22.58;19.70;;;;;;;24.63;54.65;94627.72;5036152;27;99346;-60
2022/08/29 23:48:11;;;;;;;22.20;19.80;;;;;;;24.62;54.96;94626.16;5036193;28;96708;-62
2022/08/29 23:50:36;;;;;;;21.10;18.48;;;;;;;24.63;53.92;94633.25;5035169;28;96963;-62
2022/08/29 23:53:02;;;;;;;21.85;19.08;;;;;;;24.58;53.69;94626.25;5034940;28;99787;-61
2022/08/29 23:55:27;;;;;;;20.23;16.98;;;;;;;24.59;53.83;94627.81;5035931;28;101228;-61
2022/08/29 23:57:53;;;;;;;20.58;17.23;;;;;;;24.56;53.86;94623.91;5036623;28;97028;-61
